sensor_id;sensor_type;location;lat;lon;timestamp;P1;durP1;ratioP1;P2;durP2;ratioP2
63499;SDS011;49654;51.142;14.924;2023-11-21T00:02:26;6.43;;;2.58;;
63499;SDS011;49654;51.142;14.924;2023-11-21T00:04:54;7.32;;;2.85;;
63499;SDS011;49654;51.142;14.924;2023-11-21T00:07:21;5.78;;;2.90;;
63499;SDS011;49654;51.142;14.924;2023-11-21T00:09:48;7.22;;;2.75;;
63499;SDS011;49654;51.142;14.924;2023-11-21T00:12:15;8.30;;;2.55;;
63499;SDS011;49654;51.142;14.924;2023-11-21T00:14:43;5.18;;;2.65;;
63499;SDS011;49654;51.142;14.924;2023-11-21T00:17:11;6.53;;;3.20;;
63499;SDS011;49654;51.142;14.924;2023-11-21T00:19:47;10.75;;;3.08;;
63499;SDS011;49654;51.142;14.924;2023-11-21T00:22:14;5.72;;;2.97;;
63499;SDS011;49654;51.142;14.924;2023-11-21T00:24:42;9.27;;;4.28;;
63499;SDS011;49654;51.142;14.924;2023-11-21T00:27:09;8.52;;;2.80;;
63499;SDS011;49654;51.142;14.924;2023-11-21T00:29:36;10.27;;;3.00;;
63499;SDS011;49654;51.142;14.924;2023-11-21T00:32:06;10.00;;;2.60;;
63499;SDS011;49654;51.142;14.924;2023-11-21T00:34:33;4.90;;;2.20;;
63499;SDS011;49654;51.142;14.924;2023-11-21T00:37:00;5.93;;;3.03;;
63499;SDS011;49654;51.142;14.924;2023-11-21T00:39:28;8.77;;;3.08;;
63499;SDS011;49654;51.142;14.924;2023-11-21T00:41:55;5.00;;;2.22;;
63499;SDS011;49654;51.142;14.924;2023-11-21T00:44:22;6.55;;;2.25;;
63499;SDS011;49654;51.142;14.924;2023-11-21T00:46:49;7.03;;;2.30;;
63499;SDS011;49654;51.142;14.924;2023-11-21T00:49:18;4.32;;;2.50;;
63499;SDS011;49654;51.142;14.924;2023-11-21T00:51:46;4.65;;;2.40;;
63499;SDS011;49654;51.142;14.924;2023-11-21T00:54:13;7.25;;;2.38;;
63499;SDS011;49654;51.142;14.924;2023-11-21T00:56:42;4.80;;;2.03;;
63499;SDS011;49654;51.142;14.924;2023-11-21T00:59:09;4.07;;;1.92;;
63499;SDS011;49654;51.142;14.924;2023-11-21T01:01:37;5.07;;;2.38;;
63499;SDS011;49654;51.142;14.924;2023-11-21T01:04:05;4.25;;;2.20;;
63499;SDS011;49654;51.142;14.924;2023-11-21T01:06:34;4.70;;;2.08;;
63499;SDS011;49654;51.142;14.924;2023-11-21T01:09:01;7.65;;;2.35;;
63499;SDS011;49654;51.142;14.924;2023-11-21T01:11:33;7.85;;;2.53;;
63499;SDS011;49654;51.142;14.924;2023-11-21T01:14:02;7.15;;;2.40;;
63499;SDS011;49654;51.142;14.924;2023-11-21T01:16:30;6.18;;;2.50;;
63499;SDS011;49654;51.142;14.924;2023-11-21T01:18:58;5.38;;;2.38;;
63499;SDS011;49654;51.142;14.924;2023-11-21T01:21:25;6.13;;;2.40;;
63499;SDS011;49654;51.142;14.924;2023-11-21T01:23:55;6.38;;;2.40;;
63499;SDS011;49654;51.142;14.924;2023-11-21T01:26:21;4.55;;;2.20;;
63499;SDS011;49654;51.142;14.924;2023-11-21T01:28:48;4.40;;;2.50;;
63499;SDS011;49654;51.142;14.924;2023-11-21T01:31:16;6.38;;;2.67;;
63499;SDS011;49654;51.142;14.924;2023-11-21T01:33:43;6.28;;;3.00;;
63499;SDS011;49654;51.142;14.924;2023-11-21T01:36:10;4.70;;;2.38;;
63499;SDS011;49654;51.142;14.924;2023-11-21T01:38:38;6.43;;;2.78;;
63499;SDS011;49654;51.142;14.924;2023-11-21T01:41:06;5.80;;;2.67;;
63499;SDS011;49654;51.142;14.924;2023-11-21T01:43:33;10.05;;;3.13;;
63499;SDS011;49654;51.142;14.924;2023-11-21T01:46:00;8.60;;;2.92;;
63499;SDS011;49654;51.142;14.924;2023-11-21T01:48:28;4.85;;;2.60;;
63499;SDS011;49654;51.142;14.924;2023-11-21T01:50:55;5.43;;;3.13;;
63499;SDS011;49654;51.142;14.924;2023-11-21T01:53:23;4.93;;;2.75;;
63499;SDS011;49654;51.142;14.924;2023-11-21T01:55:51;4.60;;;2.70;;
63499;SDS011;49654;51.142;14.924;2023-11-21T01:58:20;5.03;;;2.38;;
63499;SDS011;49654;51.142;14.924;2023-11-21T02:00:48;5.13;;;2.47;;
63499;SDS011;49654;51.142;14.924;2023-11-21T02:03:16;7.80;;;2.72;;
63499;SDS011;49654;51.142;14.924;2023-11-21T02:05:43;6.07;;;3.10;;
63499;SDS011;49654;51.142;14.924;2023-11-21T02:08:11;6.53;;;3.08;;
63499;SDS011;49654;51.142;14.924;2023-11-21T02:10:38;5.50;;;2.80;;
63499;SDS011;49654;51.142;14.924;2023-11-21T02:13:06;7.18;;;2.80;;
63499;SDS011;49654;51.142;14.924;2023-11-21T02:15:35;5.97;;;2.72;;
63499;SDS011;49654;51.142;14.924;2023-11-21T02:18:04;8.05;;;2.50;;
63499;SDS011;49654;51.142;14.924;2023-11-21T02:20:32;6.85;;;2.78;;
63499;SDS011;49654;51.142;14.924;2023-11-21T02:23:09;6.05;;;2.85;;
63499;SDS011;49654;51.142;14.924;2023-11-21T02:25:38;5.88;;;2.85;;
63499;SDS011;49654;51.142;14.924;2023-11-21T02:28:08;8.80;;;3.38;;
63499;SDS011;49654;51.142;14.924;2023-11-21T02:30:38;8.00;;;3.22;;
63499;SDS011;49654;51.142;14.924;2023-11-21T02:33:05;10.95;;;3.60;;
63499;SDS011;49654;51.142;14.924;2023-11-21T02:35:33;8.38;;;3.08;;
63499;SDS011;49654;51.142;14.924;2023-11-21T02:38:00;6.32;;;2.97;;
63499;SDS011;49654;51.142;14.924;2023-11-21T02:40:29;4.63;;;3.00;;
63499;SDS011;49654;51.142;14.924;2023-11-21T02:42:56;4.85;;;3.35;;
63499;SDS011;49654;51.142;14.924;2023-11-21T02:45:24;5.93;;;2.63;;
63499;SDS011;49654;51.142;14.924;2023-11-21T02:47:52;6.50;;;3.40;;
63499;SDS011;49654;51.142;14.924;2023-11-21T02:50:22;7.05;;;3.17;;
63499;SDS011;49654;51.142;14.924;2023-11-21T02:52:49;6.70;;;3.33;;
63499;SDS011;49654;51.142;14.924;2023-11-21T02:55:16;7.82;;;3.80;;
63499;SDS011;49654;51.142;14.924;2023-11-21T02:57:45;5.75;;;3.00;;
63499;SDS011;49654;51.142;14.924;2023-11-21T03:00:12;10.10;;;3.17;;
63499;SDS011;49654;51.142;14.924;2023-11-21T03:02:40;8.45;;;3.55;;
63499;SDS011;49654;51.142;14.924;2023-11-21T03:05:07;6.90;;;3.30;;
63499;SDS011;49654;51.142;14.924;2023-11-21T03:07:36;8.38;;;3.65;;
63499;SDS011;49654;51.142;14.924;2023-11-21T03:10:03;8.02;;;3.45;;
63499;SDS011;49654;51.142;14.924;2023-11-21T03:12:32;10.25;;;3.45;;
63499;SDS011;49654;51.142;14.924;2023-11-21T03:15:00;7.72;;;3.85;;
63499;SDS011;49654;51.142;14.924;2023-11-21T03:17:28;5.78;;;3.42;;
63499;SDS011;49654;51.142;14.924;2023-11-21T03:19:55;7.63;;;3.42;;
63499;SDS011;49654;51.142;14.924;2023-11-21T03:22:23;9.98;;;3.53;;
63499;SDS011;49654;51.142;14.924;2023-11-21T03:24:50;7.75;;;3.35;;
63499;SDS011;49654;51.142;14.924;2023-11-21T03:27:23;7.75;;;3.47;;
63499;SDS011;49654;51.142;14.924;2023-11-21T03:29:51;6.75;;;3.47;;
63499;SDS011;49654;51.142;14.924;2023-11-21T03:32:31;11.57;;;4.82;;
63499;SDS011;49654;51.142;14.924;2023-11-21T03:35:22;10.82;;;3.90;;
63499;SDS011;49654;51.142;14.924;2023-11-21T03:37:49;8.70;;;3.72;;
63499;SDS011;49654;51.142;14.924;2023-11-21T03:40:17;9.20;;;3.60;;
63499;SDS011;49654;51.142;14.924;2023-11-21T03:42:44;10.07;;;3.85;;
63499;SDS011;49654;51.142;14.924;2023-11-21T03:45:11;10.05;;;4.20;;
63499;SDS011;49654;51.142;14.924;2023-11-21T03:47:40;9.80;;;3.83;;
63499;SDS011;49654;51.142;14.924;2023-11-21T03:50:07;8.10;;;4.10;;
63499;SDS011;49654;51.142;14.924;2023-11-21T03:52:35;8.18;;;4.05;;
63499;SDS011;49654;51.142;14.924;2023-11-21T03:55:02;10.75;;;4.45;;
63499;SDS011;49654;51.142;14.924;2023-11-21T03:57:30;9.73;;;4.43;;
63499;SDS011;49654;51.142;14.924;2023-11-21T03:59:57;8.40;;;4.20;;
63499;SDS011;49654;51.142;14.924;2023-11-21T04:02:25;11.18;;;4.10;;
63499;SDS011;49654;51.142;14.924;2023-11-21T04:04:55;8.02;;;4.22;;
63499;SDS011;49654;51.142;14.924;2023-11-21T04:07:22;9.63;;;3.97;;
63499;SDS011;49654;51.142;14.924;2023-11-21T04:09:49;7.57;;;4.13;;
63499;SDS011;49654;51.142;14.924;2023-11-21T04:12:16;9.15;;;4.55;;
63499;SDS011;49654;51.142;14.924;2023-11-21T04:14:43;10.30;;;4.68;;
63499;SDS011;49654;51.142;14.924;2023-11-21T04:17:10;13.95;;;4.22;;
63499;SDS011;49654;51.142;14.924;2023-11-21T04:19:37;9.35;;;4.75;;
63499;SDS011;49654;51.142;14.924;2023-11-21T04:22:06;9.00;;;4.57;;
63499;SDS011;49654;51.142;14.924;2023-11-21T04:24:33;8.82;;;4.30;;
63499;SDS011;49654;51.142;14.924;2023-11-21T04:27:02;9.18;;;4.90;;
63499;SDS011;49654;51.142;14.924;2023-11-21T04:29:29;7.72;;;4.60;;
63499;SDS011;49654;51.142;14.924;2023-11-21T04:31:57;10.50;;;5.00;;
63499;SDS011;49654;51.142;14.924;2023-11-21T04:34:24;8.85;;;5.00;;
63499;SDS011;49654;51.142;14.924;2023-11-21T04:36:51;9.18;;;4.68;;
63499;SDS011;49654;51.142;14.924;2023-11-21T04:39:21;12.23;;;5.07;;
63499;SDS011;49654;51.142;14.924;2023-11-21T04:41:48;14.05;;;5.15;;
63499;SDS011;49654;51.142;14.924;2023-11-21T04:44:15;8.88;;;4.70;;
63499;SDS011;49654;51.142;14.924;2023-11-21T04:46:42;10.90;;;5.03;;
63499;SDS011;49654;51.142;14.924;2023-11-21T04:49:09;9.68;;;4.53;;
63499;SDS011;49654;51.142;14.924;2023-11-21T04:51:37;13.63;;;5.32;;
63499;SDS011;49654;51.142;14.924;2023-11-21T04:54:05;11.85;;;4.70;;
63499;SDS011;49654;51.142;14.924;2023-11-21T04:56:33;10.60;;;5.10;;
63499;SDS011;49654;51.142;14.924;2023-11-21T04:59:01;10.27;;;4.90;;
63499;SDS011;49654;51.142;14.924;2023-11-21T05:01:28;10.00;;;5.60;;
63499;SDS011;49654;51.142;14.924;2023-11-21T05:03:55;12.38;;;5.40;;
63499;SDS011;49654;51.142;14.924;2023-11-21T05:06:22;9.88;;;5.50;;
63499;SDS011;49654;51.142;14.924;2023-11-21T05:08:50;7.25;;;4.85;;
63499;SDS011;49654;51.142;14.924;2023-11-21T05:11:24;10.43;;;5.10;;
63499;SDS011;49654;51.142;14.924;2023-11-21T05:13:53;8.73;;;4.90;;
63499;SDS011;49654;51.142;14.924;2023-11-21T05:16:22;8.43;;;5.13;;
63499;SDS011;49654;51.142;14.924;2023-11-21T05:18:49;9.38;;;5.45;;
63499;SDS011;49654;51.142;14.924;2023-11-21T05:21:17;11.73;;;5.20;;
63499;SDS011;49654;51.142;14.924;2023-11-21T05:23:46;11.15;;;5.65;;
63499;SDS011;49654;51.142;14.924;2023-11-21T05:26:14;11.13;;;5.47;;
63499;SDS011;49654;51.142;14.924;2023-11-21T05:28:42;13.07;;;5.70;;
63499;SDS011;49654;51.142;14.924;2023-11-21T05:31:11;10.35;;;5.70;;
63499;SDS011;49654;51.142;14.924;2023-11-21T05:33:38;9.68;;;5.80;;
63499;SDS011;49654;51.142;14.924;2023-11-21T05:36:06;10.80;;;5.18;;
63499;SDS011;49654;51.142;14.924;2023-11-21T05:38:35;9.65;;;5.63;;
63499;SDS011;49654;51.142;14.924;2023-11-21T05:41:02;11.38;;;6.05;;
63499;SDS011;49654;51.142;14.924;2023-11-21T05:43:30;10.52;;;5.57;;
63499;SDS011;49654;51.142;14.924;2023-11-21T05:45:58;9.30;;;5.40;;
63499;SDS011;49654;51.142;14.924;2023-11-21T05:48:26;9.35;;;5.15;;
63499;SDS011;49654;51.142;14.924;2023-11-21T05:50:53;9.32;;;5.75;;
63499;SDS011;49654;51.142;14.924;2023-11-21T05:53:21;9.82;;;5.43;;
63499;SDS011;49654;51.142;14.924;2023-11-21T05:55:48;10.10;;;5.85;;
63499;SDS011;49654;51.142;14.924;2023-11-21T05:58:15;11.75;;;5.85;;
63499;SDS011;49654;51.142;14.924;2023-11-21T06:00:42;11.13;;;5.90;;
63499;SDS011;49654;51.142;14.924;2023-11-21T06:03:09;9.50;;;5.32;;
63499;SDS011;49654;51.142;14.924;2023-11-21T06:05:39;13.77;;;6.00;;
63499;SDS011;49654;51.142;14.924;2023-11-21T06:08:12;14.98;;;5.90;;
63499;SDS011;49654;51.142;14.924;2023-11-21T06:14:00;12.57;;;6.90;;
63499;SDS011;49654;51.142;14.924;2023-11-21T06:16:27;12.95;;;6.15;;
63499;SDS011;49654;51.142;14.924;2023-11-21T06:18:55;12.77;;;6.68;;
63499;SDS011;49654;51.142;14.924;2023-11-21T06:21:23;11.00;;;6.03;;
63499;SDS011;49654;51.142;14.924;2023-11-21T06:23:52;11.65;;;6.43;;
63499;SDS011;49654;51.142;14.924;2023-11-21T06:26:19;14.07;;;7.03;;
63499;SDS011;49654;51.142;14.924;2023-11-21T06:28:46;11.27;;;6.75;;
63499;SDS011;49654;51.142;14.924;2023-11-21T06:31:16;13.27;;;6.47;;
63499;SDS011;49654;51.142;14.924;2023-11-21T06:33:44;11.77;;;6.38;;
63499;SDS011;49654;51.142;14.924;2023-11-21T06:36:11;13.38;;;7.00;;
63499;SDS011;49654;51.142;14.924;2023-11-21T06:38:40;13.02;;;6.75;;
63499;SDS011;49654;51.142;14.924;2023-11-21T06:41:07;11.23;;;6.47;;
63499;SDS011;49654;51.142;14.924;2023-11-21T06:43:34;13.88;;;6.22;;
63499;SDS011;49654;51.142;14.924;2023-11-21T06:46:01;11.65;;;6.65;;
63499;SDS011;49654;51.142;14.924;2023-11-21T06:48:30;11.27;;;6.47;;
63499;SDS011;49654;51.142;14.924;2023-11-21T06:50:57;11.98;;;6.43;;
63499;SDS011;49654;51.142;14.924;2023-11-21T06:53:24;10.75;;;6.82;;
63499;SDS011;49654;51.142;14.924;2023-11-21T06:55:52;11.23;;;7.10;;
63499;SDS011;49654;51.142;14.924;2023-11-21T06:58:20;13.35;;;6.80;;
63499;SDS011;49654;51.142;14.924;2023-11-21T07:00:47;13.23;;;6.60;;
63499;SDS011;49654;51.142;14.924;2023-11-21T07:03:18;11.00;;;6.72;;
63499;SDS011;49654;51.142;14.924;2023-11-21T07:05:51;12.90;;;7.03;;
63499;SDS011;49654;51.142;14.924;2023-11-21T07:08:26;12.07;;;6.22;;
63499;SDS011;49654;51.142;14.924;2023-11-21T07:10:54;13.18;;;6.72;;
63499;SDS011;49654;51.142;14.924;2023-11-21T07:13:21;13.75;;;6.78;;
63499;SDS011;49654;51.142;14.924;2023-11-21T07:15:54;14.10;;;6.53;;
63499;SDS011;49654;51.142;14.924;2023-11-21T07:18:41;13.15;;;7.20;;
63499;SDS011;49654;51.142;14.924;2023-11-21T07:21:08;12.68;;;6.72;;
63499;SDS011;49654;51.142;14.924;2023-11-21T07:23:37;11.40;;;6.85;;
63499;SDS011;49654;51.142;14.924;2023-11-21T07:26:06;11.02;;;6.18;;
63499;SDS011;49654;51.142;14.924;2023-11-21T07:28:35;10.70;;;6.35;;
63499;SDS011;49654;51.142;14.924;2023-11-21T07:31:02;12.23;;;5.78;;
63499;SDS011;49654;51.142;14.924;2023-11-21T07:33:29;13.70;;;6.03;;
63499;SDS011;49654;51.142;14.924;2023-11-21T07:36:00;10.45;;;5.47;;
63499;SDS011;49654;51.142;14.924;2023-11-21T07:38:27;12.68;;;5.78;;
63499;SDS011;49654;51.142;14.924;2023-11-21T07:40:54;15.90;;;6.35;;
63499;SDS011;49654;51.142;14.924;2023-11-21T07:43:25;8.38;;;4.97;;
63499;SDS011;49654;51.142;14.924;2023-11-21T07:46:03;10.60;;;4.90;;
63499;SDS011;49654;51.142;14.924;2023-11-21T07:48:35;15.10;;;5.97;;
63499;SDS011;49654;51.142;14.924;2023-11-21T07:51:04;9.57;;;4.93;;
63499;SDS011;49654;51.142;14.924;2023-11-21T07:53:32;7.07;;;4.63;;
63499;SDS011;49654;51.142;14.924;2023-11-21T07:56:03;12.07;;;4.72;;
63499;SDS011;49654;51.142;14.924;2023-11-21T07:58:32;11.38;;;4.82;;
63499;SDS011;49654;51.142;14.924;2023-11-21T08:00:59;9.75;;;4.97;;
63499;SDS011;49654;51.142;14.924;2023-11-21T08:03:27;9.35;;;5.32;;
63499;SDS011;49654;51.142;14.924;2023-11-21T08:05:55;10.27;;;5.28;;
63499;SDS011;49654;51.142;14.924;2023-11-21T08:08:23;12.07;;;4.70;;
63499;SDS011;49654;51.142;14.924;2023-11-21T08:10:50;10.55;;;5.55;;
63499;SDS011;49654;51.142;14.924;2023-11-21T08:13:21;10.13;;;4.97;;
63499;SDS011;49654;51.142;14.924;2023-11-21T08:15:50;10.65;;;5.00;;
63499;SDS011;49654;51.142;14.924;2023-11-21T08:18:21;9.77;;;5.35;;
63499;SDS011;49654;51.142;14.924;2023-11-21T08:20:48;9.60;;;4.95;;
63499;SDS011;49654;51.142;14.924;2023-11-21T08:23:16;8.93;;;5.63;;
63499;SDS011;49654;51.142;14.924;2023-11-21T08:25:44;10.10;;;5.60;;
63499;SDS011;49654;51.142;14.924;2023-11-21T08:28:11;10.88;;;5.22;;
63499;SDS011;49654;51.142;14.924;2023-11-21T08:30:40;9.70;;;5.32;;
63499;SDS011;49654;51.142;14.924;2023-11-21T08:33:09;9.02;;;5.32;;
63499;SDS011;49654;51.142;14.924;2023-11-21T08:35:36;7.13;;;5.22;;
63499;SDS011;49654;51.142;14.924;2023-11-21T08:38:04;11.45;;;5.35;;
63499;SDS011;49654;51.142;14.924;2023-11-21T08:40:31;9.75;;;5.40;;
63499;SDS011;49654;51.142;14.924;2023-11-21T08:42:59;8.63;;;5.20;;
63499;SDS011;49654;51.142;14.924;2023-11-21T08:45:26;9.00;;;4.72;;
63499;SDS011;49654;51.142;14.924;2023-11-21T08:47:53;8.75;;;5.40;;
63499;SDS011;49654;51.142;14.924;2023-11-21T08:50:24;9.45;;;5.20;;
63499;SDS011;49654;51.142;14.924;2023-11-21T08:53:03;11.30;;;4.97;;
63499;SDS011;49654;51.142;14.924;2023-11-21T08:55:44;9.07;;;4.30;;
63499;SDS011;49654;51.142;14.924;2023-11-21T08:58:30;7.85;;;4.57;;
63499;SDS011;49654;51.142;14.924;2023-11-21T09:01:07;6.53;;;4.78;;
63499;SDS011;49654;51.142;14.924;2023-11-21T09:03:58;6.38;;;4.22;;
63499;SDS011;49654;51.142;14.924;2023-11-21T09:06:36;7.50;;;4.03;;
63499;SDS011;49654;51.142;14.924;2023-11-21T09:09:07;4.85;;;4.15;;
63499;SDS011;49654;51.142;14.924;2023-11-21T09:11:36;6.53;;;4.07;;
63499;SDS011;49654;51.142;14.924;2023-11-21T09:14:04;4.53;;;4.03;;
63499;SDS011;49654;51.142;14.924;2023-11-21T09:16:32;4.90;;;3.35;;
63499;SDS011;49654;51.142;14.924;2023-11-21T09:18:59;6.32;;;3.50;;
63499;SDS011;49654;51.142;14.924;2023-11-21T09:21:26;3.25;;;2.97;;
63499;SDS011;49654;51.142;14.924;2023-11-21T09:23:54;3.58;;;2.63;;
63499;SDS011;49654;51.142;14.924;2023-11-21T09:26:21;4.55;;;2.55;;
63499;SDS011;49654;51.142;14.924;2023-11-21T09:28:48;2.83;;;2.60;;
63499;SDS011;49654;51.142;14.924;2023-11-21T09:31:15;2.45;;;2.25;;
63499;SDS011;49654;51.142;14.924;2023-11-21T09:33:43;2.78;;;2.38;;
63499;SDS011;49654;51.142;14.924;2023-11-21T09:36:13;3.40;;;2.22;;
63499;SDS011;49654;51.142;14.924;2023-11-21T09:38:40;3.88;;;2.20;;
63499;SDS011;49654;51.142;14.924;2023-11-21T09:41:11;1.98;;;1.73;;
63499;SDS011;49654;51.142;14.924;2023-11-21T09:43:46;2.25;;;1.63;;
63499;SDS011;49654;51.142;14.924;2023-11-21T09:46:18;2.15;;;1.50;;
63499;SDS011;49654;51.142;14.924;2023-11-21T09:48:51;1.60;;;1.50;;
63499;SDS011;49654;51.142;14.924;2023-11-21T09:51:19;3.78;;;2.92;;
63499;SDS011;49654;51.142;14.924;2023-11-21T09:53:48;8.05;;;7.00;;
63499;SDS011;49654;51.142;14.924;2023-11-21T09:56:19;10.25;;;6.32;;
63499;SDS011;49654;51.142;14.924;2023-11-21T09:58:50;35.55;;;31.00;;
63499;SDS011;49654;51.142;14.924;2023-11-21T10:01:18;32.15;;;20.33;;
63499;SDS011;49654;51.142;14.924;2023-11-21T10:03:47;9.25;;;7.05;;
63499;SDS011;49654;51.142;14.924;2023-11-21T10:06:14;1.70;;;1.60;;
63499;SDS011;49654;51.142;14.924;2023-11-21T10:08:44;4.60;;;1.80;;
63499;SDS011;49654;51.142;14.924;2023-11-21T10:11:12;1.30;;;1.20;;
63499;SDS011;49654;51.142;14.924;2023-11-21T10:13:43;3.63;;;3.33;;
63499;SDS011;49654;51.142;14.924;2023-11-21T10:16:12;3.63;;;2.10;;
63499;SDS011;49654;51.142;14.924;2023-11-21T10:18:42;5.13;;;3.70;;
63499;SDS011;49654;51.142;14.924;2023-11-21T10:21:11;1.75;;;1.65;;
63499;SDS011;49654;51.142;14.924;2023-11-21T10:23:39;2.95;;;2.50;;
63499;SDS011;49654;51.142;14.924;2023-11-21T10:26:06;5.45;;;2.70;;
63499;SDS011;49654;51.142;14.924;2023-11-21T10:28:43;5.22;;;2.30;;
63499;SDS011;49654;51.142;14.924;2023-11-21T10:31:22;5.13;;;2.60;;
63499;SDS011;49654;51.142;14.924;2023-11-21T10:33:49;6.80;;;3.28;;
63499;SDS011;49654;51.142;14.924;2023-11-21T10:36:24;5.03;;;3.47;;
63499;SDS011;49654;51.142;14.924;2023-11-21T10:38:53;2.95;;;2.40;;
63499;SDS011;49654;51.142;14.924;2023-11-21T10:41:20;3.75;;;2.40;;
63499;SDS011;49654;51.142;14.924;2023-11-21T10:43:49;3.05;;;2.60;;
63499;SDS011;49654;51.142;14.924;2023-11-21T10:46:20;4.15;;;3.50;;
63499;SDS011;49654;51.142;14.924;2023-11-21T10:48:52;2.40;;;1.90;;
63499;SDS011;49654;51.142;14.924;2023-11-21T10:51:20;2.70;;;1.80;;
63499;SDS011;49654;51.142;14.924;2023-11-21T10:53:47;3.22;;;1.60;;
63499;SDS011;49654;51.142;14.924;2023-11-21T10:56:16;25.17;;;18.67;;
63499;SDS011;49654;51.142;14.924;2023-11-21T10:58:49;2.95;;;2.65;;
63499;SDS011;49654;51.142;14.924;2023-11-21T11:01:17;3.15;;;2.90;;
63499;SDS011;49654;51.142;14.924;2023-11-21T11:03:47;4.70;;;4.30;;
63499;SDS011;49654;51.142;14.924;2023-11-21T11:06:14;3.15;;;2.00;;
63499;SDS011;49654;51.142;14.924;2023-11-21T11:08:42;2.42;;;1.95;;
63499;SDS011;49654;51.142;14.924;2023-11-21T11:11:09;3.50;;;1.90;;
63499;SDS011;49654;51.142;14.924;2023-11-21T11:13:37;2.23;;;2.03;;
63499;SDS011;49654;51.142;14.924;2023-11-21T11:16:07;2.08;;;1.88;;
63499;SDS011;49654;51.142;14.924;2023-11-21T11:18:36;2.53;;;2.10;;
63499;SDS011;49654;51.142;14.924;2023-11-21T11:21:07;2.17;;;1.80;;
63499;SDS011;49654;51.142;14.924;2023-11-21T11:23:49;3.08;;;2.00;;
63499;SDS011;49654;51.142;14.924;2023-11-21T11:26:36;3.33;;;2.78;;
63499;SDS011;49654;51.142;14.924;2023-11-21T11:29:14;2.58;;;2.30;;
63499;SDS011;49654;51.142;14.924;2023-11-21T11:31:54;3.35;;;2.90;;
63499;SDS011;49654;51.142;14.924;2023-11-21T11:34:30;3.60;;;2.70;;
63499;SDS011;49654;51.142;14.924;2023-11-21T11:37:03;4.18;;;3.05;;
63499;SDS011;49654;51.142;14.924;2023-11-21T11:39:35;3.73;;;2.60;;
63499;SDS011;49654;51.142;14.924;2023-11-21T11:42:03;6.03;;;4.75;;
63499;SDS011;49654;51.142;14.924;2023-11-21T11:44:48;5.07;;;4.28;;
63499;SDS011;49654;51.142;14.924;2023-11-21T11:47:21;3.55;;;2.50;;
63499;SDS011;49654;51.142;14.924;2023-11-21T11:49:57;3.22;;;2.40;;
63499;SDS011;49654;51.142;14.924;2023-11-21T11:52:31;3.70;;;3.07;;
63499;SDS011;49654;51.142;14.924;2023-11-21T11:54:59;3.70;;;3.15;;
63499;SDS011;49654;51.142;14.924;2023-11-21T11:57:29;4.93;;;3.40;;
63499;SDS011;49654;51.142;14.924;2023-11-21T12:00:16;2.00;;;1.67;;
63499;SDS011;49654;51.142;14.924;2023-11-21T12:02:47;2.00;;;1.80;;
63499;SDS011;49654;51.142;14.924;2023-11-21T12:05:15;2.58;;;2.25;;
63499;SDS011;49654;51.142;14.924;2023-11-21T12:07:45;4.35;;;2.75;;
63499;SDS011;49654;51.142;14.924;2023-11-21T12:10:14;4.43;;;2.63;;
63499;SDS011;49654;51.142;14.924;2023-11-21T12:12:44;3.13;;;2.40;;
63499;SDS011;49654;51.142;14.924;2023-11-21T12:15:14;3.43;;;2.90;;
63499;SDS011;49654;51.142;14.924;2023-11-21T12:17:42;3.97;;;3.27;;
63499;SDS011;49654;51.142;14.924;2023-11-21T12:20:13;2.33;;;2.13;;
63499;SDS011;49654;51.142;14.924;2023-11-21T12:22:43;2.92;;;2.50;;
63499;SDS011;49654;51.142;14.924;2023-11-21T12:25:13;3.60;;;2.40;;
63499;SDS011;49654;51.142;14.924;2023-11-21T12:27:42;4.03;;;2.23;;
63499;SDS011;49654;51.142;14.924;2023-11-21T12:30:11;3.40;;;2.70;;
63499;SDS011;49654;51.142;14.924;2023-11-21T12:32:41;3.63;;;3.33;;
63499;SDS011;49654;51.142;14.924;2023-11-21T12:35:09;4.57;;;3.70;;
63499;SDS011;49654;51.142;14.924;2023-11-21T12:37:39;5.25;;;3.95;;
63499;SDS011;49654;51.142;14.924;2023-11-21T12:40:08;6.28;;;4.28;;
63499;SDS011;49654;51.142;14.924;2023-11-21T12:42:37;7.33;;;5.10;;
63499;SDS011;49654;51.142;14.924;2023-11-21T12:45:08;7.75;;;6.28;;
63499;SDS011;49654;51.142;14.924;2023-11-21T12:47:41;10.10;;;8.70;;
63499;SDS011;49654;51.142;14.924;2023-11-21T12:50:09;11.05;;;9.30;;
63499;SDS011;49654;51.142;14.924;2023-11-21T12:52:44;13.43;;;10.30;;
63499;SDS011;49654;51.142;14.924;2023-11-21T12:55:14;26.67;;;11.83;;
63499;SDS011;49654;51.142;14.924;2023-11-21T12:57:43;15.43;;;12.07;;
63499;SDS011;49654;51.142;14.924;2023-11-21T13:00:12;19.93;;;12.23;;
63499;SDS011;49654;51.142;14.924;2023-11-21T13:02:53;21.90;;;13.95;;
63499;SDS011;49654;51.142;14.924;2023-11-21T13:05:26;38.63;;;12.77;;
63499;SDS011;49654;51.142;14.924;2023-11-21T13:07:55;18.23;;;13.53;;
63499;SDS011;49654;51.142;14.924;2023-11-21T13:10:24;19.73;;;14.33;;
63499;SDS011;49654;51.142;14.924;2023-11-21T13:12:52;18.17;;;13.97;;
63499;SDS011;49654;51.142;14.924;2023-11-21T13:15:20;42.97;;;15.07;;
63499;SDS011;49654;51.142;14.924;2023-11-21T13:17:47;35.13;;;15.20;;
63499;SDS011;49654;51.142;14.924;2023-11-21T13:20:16;34.40;;;14.67;;
63499;SDS011;49654;51.142;14.924;2023-11-21T13:22:46;28.93;;;14.53;;
63499;SDS011;49654;51.142;14.924;2023-11-21T13:25:17;25.67;;;15.37;;
63499;SDS011;49654;51.142;14.924;2023-11-21T13:27:45;20.40;;;14.70;;
63499;SDS011;49654;51.142;14.924;2023-11-21T13:30:13;21.57;;;14.13;;
63499;SDS011;49654;51.142;14.924;2023-11-21T13:32:42;28.03;;;15.20;;
63499;SDS011;49654;51.142;14.924;2023-11-21T13:35:11;20.03;;;14.57;;
63499;SDS011;49654;51.142;14.924;2023-11-21T13:37:49;18.57;;;13.77;;
63499;SDS011;49654;51.142;14.924;2023-11-21T13:40:22;17.83;;;12.83;;
63499;SDS011;49654;51.142;14.924;2023-11-21T13:42:52;18.03;;;12.63;;
63499;SDS011;49654;51.142;14.924;2023-11-21T13:45:24;15.67;;;11.20;;
63499;SDS011;49654;51.142;14.924;2023-11-21T13:47:53;16.87;;;12.50;;
63499;SDS011;49654;51.142;14.924;2023-11-21T13:50:23;12.50;;;9.87;;
63499;SDS011;49654;51.142;14.924;2023-11-21T13:52:54;13.60;;;9.83;;
63499;SDS011;49654;51.142;14.924;2023-11-21T13:55:23;12.23;;;9.20;;
63499;SDS011;49654;51.142;14.924;2023-11-21T13:57:51;12.23;;;8.83;;
63499;SDS011;49654;51.142;14.924;2023-11-21T14:00:18;9.77;;;7.73;;
63499;SDS011;49654;51.142;14.924;2023-11-21T14:03:15;8.90;;;7.53;;
63499;SDS011;49654;51.142;14.924;2023-11-21T14:05:47;9.50;;;7.60;;
63499;SDS011;49654;51.142;14.924;2023-11-21T14:08:17;10.87;;;8.23;;
63499;SDS011;49654;51.142;14.924;2023-11-21T14:10:48;9.60;;;7.70;;
63499;SDS011;49654;51.142;14.924;2023-11-21T14:13:23;9.47;;;7.50;;
63499;SDS011;49654;51.142;14.924;2023-11-21T14:15:50;8.27;;;6.70;;
63499;SDS011;49654;51.142;14.924;2023-11-21T14:18:23;10.87;;;7.30;;
63499;SDS011;49654;51.142;14.924;2023-11-21T14:20:56;8.43;;;6.73;;
63499;SDS011;49654;51.142;14.924;2023-11-21T14:23:23;8.10;;;6.00;;
63499;SDS011;49654;51.142;14.924;2023-11-21T14:25:52;5.47;;;4.57;;
63499;SDS011;49654;51.142;14.924;2023-11-21T14:28:19;6.40;;;5.10;;
63499;SDS011;49654;51.142;14.924;2023-11-21T14:30:46;5.20;;;4.40;;
63499;SDS011;49654;51.142;14.924;2023-11-21T14:33:13;4.43;;;3.90;;
63499;SDS011;49654;51.142;14.924;2023-11-21T14:35:42;6.20;;;4.83;;
63499;SDS011;49654;51.142;14.924;2023-11-21T14:38:09;7.50;;;6.13;;
63499;SDS011;49654;51.142;14.924;2023-11-21T14:40:36;4.70;;;4.17;;
63499;SDS011;49654;51.142;14.924;2023-11-21T14:43:04;4.73;;;4.33;;
63499;SDS011;49654;51.142;14.924;2023-11-21T14:45:31;4.97;;;4.13;;